Kvb Empire — PD5101 — position and weather

sailwx.info

Track history (hours):
 
Tides and Currents Weather Stations Pressure Air Temp Water Temp Dewpoint Dewpoint Depression Visibility Wind Speed Wind Dir Waves Ship Positions

Kvb Empire

Last reported at 2017-Jan-22 10:18 UTC. Time now 2017-Jan-24 01:03 UTC.
Position N 50°41' E 007°11'.

Length 183 m; draft 2 m.

Type: Ship. MMSI: 244670090.

Date/timePositionNaut miles runAvg speedWind from/ knotsBaromVisibWave heightAir tempDewpointWater temp
2017-Jan-22 10:18N 50°41' E 007°11'4 4.9
2017-Jan-22 09:33N 50°44' E 007°07'5 4.8
2017-Jan-22 08:27N 50°48' E 007°02'3 3.4
2017-Jan-22 07:31N 50°51' E 007°00'3 2.6
2017-Jan-22 06:32N 50°54' E 007°00'4 4.3
2017-Jan-22 05:33N 50°58' E 006°60'15 3.7
2017-Jan-22 01:33N 51°11' E 006°48'4 3.9
2017-Jan-22 00:31N 51°14' E 006°44'18 3.4
2017-Jan-21 19:09N 51°32' E 006°41'3 4.6
2017-Jan-21 18:33N 51°35' E 006°40'4 3.9
2017-Jan-21 17:33N 51°37' E 006°35'4 3.9
2017-Jan-21 16:33N 51°40' E 006°30'5 5.0
2017-Jan-21 15:29N 51°44' E 006°25'5 4.9
2017-Jan-21 14:33N 51°47' E 006°19'6 5.8
2017-Jan-21 13:33N 51°50' E 006°11'5 4.6
2017-Jan-21 12:33N 51°52' E 006°04'5 5.0
2017-Jan-21 11:33N 51°52' E 005°56'5 4.7
2017-Jan-21 10:33N 51°52' E 005°49'6 6.3
2017-Jan-21 09:33N 51°54' E 005°39'7 6.6
2017-Jan-21 08:33N 51°53' E 005°28'7 6.4
2017-Jan-21 07:30N 51°48' E 005°21'8 6.4
2017-Jan-21 06:14N 51°49' E 005°08'5 7.2
2017-Jan-21 05:32N 51°49' E 004°60'8 7.9
2017-Jan-21 04:33N 51°49' E 004°47'7 7.4
2017-Jan-21 03:33N 51°48' E 004°35'7 6.7
2017-Jan-21 02:33N 51°51' E 004°25'7 7.2
2017-Jan-21 01:33N 51°53' E 004°14'7 7.1
2017-Jan-21 00:33N 51°56' E 004°04'1 1.1
2017-Jan-20 23:33N 51°56' E 004°02'0 0.0
2017-Jan-20 22:33N 51°56' E 004°02'0 0.0
2017-Jan-20 21:33N 51°56' E 004°02'0 0.0
2017-Jan-20 20:33N 51°56' E 004°02'0 0.3
2017-Jan-20 19:33N 51°56' E 004°02'6 6.3
2017-Jan-20 18:33N 51°54' E 004°12'5 5.0
2017-Jan-20 17:33N 51°54' E 004°20'7 6.8
2017-Jan-20 16:33N 51°55' E 004°31'1 1.3
2017-Jan-20 15:33N 51°54' E 004°32'0 0.0
2017-Jan-20 14:33N 51°54' E 004°32'0 0.0
2017-Jan-20 13:33N 51°54' E 004°32'0 0.0
2017-Jan-20 12:33N 51°54' E 004°32'0 0.0
2017-Jan-20 11:33N 51°54' E 004°32'2 1.9
2017-Jan-20 10:33N 51°54' E 004°35'7 7.0
2017-Jan-20 09:34N 51°49' E 004°44'7 7.1
2017-Jan-20 08:33N 51°50' E 004°55'9 8.6
2017-Jan-20 07:29N 51°49' E 005°10'8 8.2
2017-Jan-20 06:33N 51°49' E 005°23'9 8.6
2017-Jan-20 05:33N 51°54' E 005°34'9 9.3
2017-Jan-20 04:33N 51°52' E 005°48'7 6.8
2017-Jan-20 03:34N 51°52' E 005°59'9 8.6
2017-Jan-20 02:34N 51°50' E 006°13'8 8.2
2017-Jan-20 01:33N 51°45' E 006°24'7 7.4
2017-Jan-20 00:34N 51°40' E 006°32'7 6.2
2017-Jan-19 23:27N 51°35' E 006°39'21 6.5
2017-Jan-19 20:12N 51°14' E 006°46'3 5.0
2017-Jan-19 19:34N 51°11' E 006°45'13 6.1
2017-Jan-19 17:22N 51°00' E 006°58'6 7.6
2017-Jan-19 16:32N 50°54' E 006°60'5 4.7
2017-Jan-19 15:32N 50°49' E 007°01'9 8.7
2017-Jan-19 14:30N 50°42' E 007°10'100 5.9
2017-Jan-18 21:27N 49°13' E 008°23'19 0.6
2017-Jan-17 15:23N 48°56' E 008°10'3 4.0
2017-Jan-17 14:33N 48°58' E 008°14'4 4.2
2017-Jan-17 13:33N 49°01' E 008°18'4 4.5
2017-Jan-17 12:34N 49°05' E 008°21'4 4.2
2017-Jan-17 11:34N 49°10' E 008°22'5 4.5
2017-Jan-17 10:33N 49°14' E 008°23'4 4.5
2017-Jan-17 09:33N 49°17' E 008°28'4 3.5
2017-Jan-17 08:26N 49°21' E 008°29'5 5.4
2017-Jan-17 07:25N 49°26' E 008°30'0 0.1
2017-Jan-17 06:33N 49°26' E 008°31'0 0.0
2017-Jan-17 05:32N 49°26' E 008°31'0 0.0
2017-Jan-17 04:33N 49°26' E 008°31'0 0.0
2017-Jan-17 03:33N 49°26' E 008°31'0 0.0
2017-Jan-17 02:33N 49°26' E 008°31'91 2.4
2017-Jan-15 12:09N 50°41' E 007°11'3 4.5
2017-Jan-15 11:34N 50°43' E 007°08'5 4.8
2017-Jan-15 10:33N 50°47' E 007°03'5 4.1
2017-Jan-15 09:27N 50°51' E 006°59'3 3.6
2017-Jan-15 08:29N 50°54' E 007°02'4 4.2
2017-Jan-15 07:32N 50°57' E 006°58'13 4.0
2017-Jan-15 04:13N 51°10' E 006°51'2 3.5
2017-Jan-15 03:33N 51°09' E 006°48'4 3.6
2017-Jan-15 02:34N 51°12' E 006°44'3 2.9
2017-Jan-15 01:33N 51°15' E 006°46'19 3.7
2017-Jan-14 20:28N 51°33' E 006°41'4 3.5
2017-Jan-14 19:27N 51°35' E 006°36'5 5.3
2017-Jan-14 18:34N 51°39' E 006°35'5 5.0
2017-Jan-14 17:34N 51°42' E 006°28'5 4.7
2017-Jan-14 16:34N 51°45' E 006°23'6 5.7
2017-Jan-14 15:33N 51°49' E 006°16'6 5.9
2017-Jan-14 14:33N 51°51' E 006°07'4 4.2
2017-Jan-14 13:33N 51°53' E 006°01'5 4.8
2017-Jan-14 12:34N 51°52' E 005°53'5 5.3
2017-Jan-14 11:34N 51°53' E 005°45'6 6.3
2017-Jan-14 10:33N 51°54' E 005°35'11 5.3
2017-Jan-14 08:34N 51°58' E 005°19'8 7.7
2017-Jan-14 07:33N 52°02' E 005°08'8 8.0
2017-Jan-14 06:33N 52°09' E 005°01'8 7.6
2017-Jan-14 05:34N 52°16' E 005°01'7 7.4
2017-Jan-14 04:34N 52°23' E 004°57'8 7.7
2017-Jan-14 03:34N 52°26' E 004°45'6 1.6
2017-Jan-13 23:33N 52°23' E 004°54'8 7.7
2017-Jan-13 22:33N 52°16' E 005°01'9 8.7
2017-Jan-13 21:33N 52°08' E 005°03'7 6.5
2017-Jan-13 20:27N 52°01' E 005°07'5 5.6
2017-Jan-13 19:33N 51°58' E 004°59'8 8.4
2017-Jan-13 18:33N 51°55' E 004°47'6 6.0
2017-Jan-13 17:33N 51°51' E 004°39'7 7.0
2017-Jan-13 16:33N 51°44' E 004°38'23 5.6
2017-Jan-13 12:28N 51°27' E 004°14'0 0.3
2017-Jan-13 11:18N 51°27' E 004°14'5 4.7
2017-Jan-13 10:18N 51°22' E 004°18'2 2.2
2017-Jan-13 09:32N 51°21' E 004°17'3 3.1
2017-Jan-13 08:27N 51°18' E 004°16'1 1.6
2017-Jan-13 07:33N 51°19' E 004°17'0 0.0
2017-Jan-13 06:33N 51°19' E 004°17'0 0.0
2017-Jan-13 05:32N 51°19' E 004°17'0 0.0
2017-Jan-13 04:09N 51°19' E 004°17'0 0.0
2017-Jan-13 03:30N 51°19' E 004°17'0 0.0
2017-Jan-13 02:26N 51°19' E 004°17'0 0.0
2017-Jan-13 01:34N 51°19' E 004°17'0 0.0
2017-Jan-13 00:32N 51°19' E 004°17'0 0.0
2017-Jan-12 23:34N 51°19' E 004°17'0 0.0
2017-Jan-12 22:33N 51°19' E 004°17'0 0.0
2017-Jan-12 21:32N 51°19' E 004°17'0 0.0
2017-Jan-12 20:34N 51°19' E 004°17'0 0.0
2017-Jan-12 19:33N 51°19' E 004°17'0 0.0
2017-Jan-12 18:33N 51°19' E 004°17'  
Track history (hours):
 
Tides and Currents Weather Stations Pressure Air Temp Water Temp Dewpoint Dewpoint Depression Visibility Wind Speed Wind Dir Waves Ship Positions

Kvb Empire

Last reported at 2017-Jan-22 10:18 UTC. Time now 2017-Jan-24 01:03 UTC.
Position N 50°41' E 007°11'.

Length 183 m; draft 2 m.

Type: Ship. MMSI: 244670090.

Date/timePositionNaut miles runAvg speedWind from/ knotsBaromVisibWave heightAir tempDewpointWater temp
2017-Jan-22 10:18N 50°41' E 007°11'4 4.9
2017-Jan-22 09:33N 50°44' E 007°07'5 4.8
2017-Jan-22 08:27N 50°48' E 007°02'3 3.4
2017-Jan-22 07:31N 50°51' E 007°00'3 2.6
2017-Jan-22 06:32N 50°54' E 007°00'4 4.3
2017-Jan-22 05:33N 50°58' E 006°60'15 3.7
2017-Jan-22 01:33N 51°11' E 006°48'4 3.9
2017-Jan-22 00:31N 51°14' E 006°44'18 3.4
2017-Jan-21 19:09N 51°32' E 006°41'3 4.6
2017-Jan-21 18:33N 51°35' E 006°40'4 3.9
2017-Jan-21 17:33N 51°37' E 006°35'4 3.9
2017-Jan-21 16:33N 51°40' E 006°30'5 5.0
2017-Jan-21 15:29N 51°44' E 006°25'5 4.9
2017-Jan-21 14:33N 51°47' E 006°19'6 5.8
2017-Jan-21 13:33N 51°50' E 006°11'5 4.6
2017-Jan-21 12:33N 51°52' E 006°04'5 5.0
2017-Jan-21 11:33N 51°52' E 005°56'5 4.7
2017-Jan-21 10:33N 51°52' E 005°49'6 6.3
2017-Jan-21 09:33N 51°54' E 005°39'7 6.6
2017-Jan-21 08:33N 51°53' E 005°28'7 6.4
2017-Jan-21 07:30N 51°48' E 005°21'8 6.4
2017-Jan-21 06:14N 51°49' E 005°08'5 7.2
2017-Jan-21 05:32N 51°49' E 004°60'8 7.9
2017-Jan-21 04:33N 51°49' E 004°47'7 7.4
2017-Jan-21 03:33N 51°48' E 004°35'7 6.7
2017-Jan-21 02:33N 51°51' E 004°25'7 7.2
2017-Jan-21 01:33N 51°53' E 004°14'7 7.1
2017-Jan-21 00:33N 51°56' E 004°04'1 1.1
2017-Jan-20 23:33N 51°56' E 004°02'0 0.0
2017-Jan-20 22:33N 51°56' E 004°02'0 0.0
2017-Jan-20 21:33N 51°56' E 004°02'0 0.0
2017-Jan-20 20:33N 51°56' E 004°02'0 0.3
2017-Jan-20 19:33N 51°56' E 004°02'6 6.3
2017-Jan-20 18:33N 51°54' E 004°12'5 5.0
2017-Jan-20 17:33N 51°54' E 004°20'7 6.8
2017-Jan-20 16:33N 51°55' E 004°31'1 1.3
2017-Jan-20 15:33N 51°54' E 004°32'0 0.0
2017-Jan-20 14:33N 51°54' E 004°32'0 0.0
2017-Jan-20 13:33N 51°54' E 004°32'0 0.0
2017-Jan-20 12:33N 51°54' E 004°32'0 0.0
2017-Jan-20 11:33N 51°54' E 004°32'2 1.9
2017-Jan-20 10:33N 51°54' E 004°35'7 7.0
2017-Jan-20 09:34N 51°49' E 004°44'7 7.1
2017-Jan-20 08:33N 51°50' E 004°55'9 8.6
2017-Jan-20 07:29N 51°49' E 005°10'8 8.2
2017-Jan-20 06:33N 51°49' E 005°23'9 8.6
2017-Jan-20 05:33N 51°54' E 005°34'9 9.3
2017-Jan-20 04:33N 51°52' E 005°48'7 6.8
2017-Jan-20 03:34N 51°52' E 005°59'9 8.6
2017-Jan-20 02:34N 51°50' E 006°13'8 8.2
2017-Jan-20 01:33N 51°45' E 006°24'7 7.4
2017-Jan-20 00:34N 51°40' E 006°32'7 6.2
2017-Jan-19 23:27N 51°35' E 006°39'21 6.5
2017-Jan-19 20:12N 51°14' E 006°46'3 5.0
2017-Jan-19 19:34N 51°11' E 006°45'13 6.1
2017-Jan-19 17:22N 51°00' E 006°58'6 7.6
2017-Jan-19 16:32N 50°54' E 006°60'5 4.7
2017-Jan-19 15:32N 50°49' E 007°01'9 8.7
2017-Jan-19 14:30N 50°42' E 007°10'100 5.9
2017-Jan-18 21:27N 49°13' E 008°23'19 0.6
2017-Jan-17 15:23N 48°56' E 008°10'3 4.0
2017-Jan-17 14:33N 48°58' E 008°14'4 4.2
2017-Jan-17 13:33N 49°01' E 008°18'4 4.5
2017-Jan-17 12:34N 49°05' E 008°21'4 4.2
2017-Jan-17 11:34N 49°10' E 008°22'5 4.5
2017-Jan-17 10:33N 49°14' E 008°23'4 4.5
2017-Jan-17 09:33N 49°17' E 008°28'4 3.5
2017-Jan-17 08:26N 49°21' E 008°29'5 5.4
2017-Jan-17 07:25N 49°26' E 008°30'0 0.1
2017-Jan-17 06:33N 49°26' E 008°31'0 0.0
2017-Jan-17 05:32N 49°26' E 008°31'0 0.0
2017-Jan-17 04:33N 49°26' E 008°31'0 0.0
2017-Jan-17 03:33N 49°26' E 008°31'0 0.0
2017-Jan-17 02:33N 49°26' E 008°31'91 2.4
2017-Jan-15 12:09N 50°41' E 007°11'3 4.5
2017-Jan-15 11:34N 50°43' E 007°08'5 4.8
2017-Jan-15 10:33N 50°47' E 007°03'5 4.1
2017-Jan-15 09:27N 50°51' E 006°59'3 3.6
2017-Jan-15 08:29N 50°54' E 007°02'4 4.2
2017-Jan-15 07:32N 50°57' E 006°58'13 4.0
2017-Jan-15 04:13N 51°10' E 006°51'2 3.5
2017-Jan-15 03:33N 51°09' E 006°48'4 3.6
2017-Jan-15 02:34N 51°12' E 006°44'3 2.9
2017-Jan-15 01:33N 51°15' E 006°46'19 3.7
2017-Jan-14 20:28N 51°33' E 006°41'4 3.5
2017-Jan-14 19:27N 51°35' E 006°36'5 5.3
2017-Jan-14 18:34N 51°39' E 006°35'5 5.0
2017-Jan-14 17:34N 51°42' E 006°28'5 4.7
2017-Jan-14 16:34N 51°45' E 006°23'6 5.7
2017-Jan-14 15:33N 51°49' E 006°16'6 5.9
2017-Jan-14 14:33N 51°51' E 006°07'4 4.2
2017-Jan-14 13:33N 51°53' E 006°01'5 4.8
2017-Jan-14 12:34N 51°52' E 005°53'5 5.3
2017-Jan-14 11:34N 51°53' E 005°45'6 6.3
2017-Jan-14 10:33N 51°54' E 005°35'11 5.3
2017-Jan-14 08:34N 51°58' E 005°19'8 7.7
2017-Jan-14 07:33N 52°02' E 005°08'8 8.0
2017-Jan-14 06:33N 52°09' E 005°01'8 7.6
2017-Jan-14 05:34N 52°16' E 005°01'7 7.4
2017-Jan-14 04:34N 52°23' E 004°57'8 7.7
2017-Jan-14 03:34N 52°26' E 004°45'6 1.6
2017-Jan-13 23:33N 52°23' E 004°54'8 7.7
2017-Jan-13 22:33N 52°16' E 005°01'9 8.7
2017-Jan-13 21:33N 52°08' E 005°03'7 6.5
2017-Jan-13 20:27N 52°01' E 005°07'5 5.6
2017-Jan-13 19:33N 51°58' E 004°59'8 8.4
2017-Jan-13 18:33N 51°55' E 004°47'6 6.0
2017-Jan-13 17:33N 51°51' E 004°39'7 7.0
2017-Jan-13 16:33N 51°44' E 004°38'23 5.6
2017-Jan-13 12:28N 51°27' E 004°14'0 0.3
2017-Jan-13 11:18N 51°27' E 004°14'5 4.7
2017-Jan-13 10:18N 51°22' E 004°18'2 2.2
2017-Jan-13 09:32N 51°21' E 004°17'3 3.1
2017-Jan-13 08:27N 51°18' E 004°16'1 1.6
2017-Jan-13 07:33N 51°19' E 004°17'0 0.0
2017-Jan-13 06:33N 51°19' E 004°17'0 0.0
2017-Jan-13 05:32N 51°19' E 004°17'0 0.0
2017-Jan-13 04:09N 51°19' E 004°17'0 0.0
2017-Jan-13 03:30N 51°19' E 004°17'0 0.0
2017-Jan-13 02:26N 51°19' E 004°17'0 0.0
2017-Jan-13 01:34N 51°19' E 004°17'0 0.0
2017-Jan-13 00:32N 51°19' E 004°17'0 0.0
2017-Jan-12 23:34N 51°19' E 004°17'0 0.0
2017-Jan-12 22:33N 51°19' E 004°17'0 0.0
2017-Jan-12 21:32N 51°19' E 004°17'0 0.0
2017-Jan-12 20:34N 51°19' E 004°17'0 0.0
2017-Jan-12 19:33N 51°19' E 004°17'0 0.0
2017-Jan-12 18:33N 51°19' E 004°17'  

Dump ship's entire track history